Portada
METAR-TAF:

METAR-TAF

Aeropuertos :

Fuerteventura, España

Aeropuerto de Fuerteventura

latitud: 28-27N, longitud: 013-52W, altitud: 22 m

Observación

El informe se hizo hace 20 minutos, a las 21:00 UTC
Viento 9 kt del norte
Temperatura 22°C
Humedad 65%
Presión 1021 hPa
Visibilidad 10 km o más
Escasas nubes a una altura de 2500 ft

METAR: GCFV 162100Z 36009KT 9999 FEW025 22/15 Q1021

Hora: 22:20 (21:20 UTC)

Pronóstico

El informe se hizo hace 1 hora y 20 minutos, a las 20:00 UTC
Pronóstico válido del 16 a las 21 UTC al 17 a las 21 UTC
Viento 9 kt del norte
Visibilidad 10 km o más
Escasas nubes a una altura de 2000 ft
Evolucionando progresivamente
del 17 a las 09 UTC al 17 a las 11 UTC
Viento 15 kt del este-noreste
Evolucionando progresivamente
del 17 a las 18 UTC al 17 a las 20 UTC
Viento 9 kt del norte

TAF: GCFV 162000Z 1621/1721 36009KT 9999 FEW020 TX25/1714Z TN18/1706Z BECMG 1709/1711 06015KT BECMG 1718/1720 36009KT

Observaciones y pronósticos meteorológicos de más de 4000 aeropuertos (mensajes METAR y TAF).

Los puntos amarillos y rojos representan las estaciones disponibles.

Ponga el ratón en el punto deseado para ver el nombre de la estación.

Haga clic para ver las observaciones y los pronósticos meteorológicos.

Para cambiar el mapa : haga clic en los botones verdes con una cruz de color negro para hacer un zoom, en el botón verde con un guión para alejar o en las flechas verdes para mapas adyacentes.


METAR-TAF: